sensor_id;sensor_type;location;lat;lon;timestamp;temperature;humidity
36450;DHT22;22475;51.390;7.180;2023-07-31T00:00:06;20.00;93.80
36450;DHT22;22475;51.390;7.180;2023-07-31T00:02:34;19.90;94.20
36450;DHT22;22475;51.390;7.180;2023-07-31T00:05:00;20.00;93.80
36450;DHT22;22475;51.390;7.180;2023-07-31T00:07:27;20.00;93.90
36450;DHT22;22475;51.390;7.180;2023-07-31T00:09:54;20.00;93.90
36450;DHT22;22475;51.390;7.180;2023-07-31T00:12:21;20.00;93.80
36450;DHT22;22475;51.390;7.180;2023-07-31T00:14:49;19.90;94.20
36450;DHT22;22475;51.390;7.180;2023-07-31T00:17:16;20.00;93.80
36450;DHT22;22475;51.390;7.180;2023-07-31T00:19:43;19.90;93.90
36450;DHT22;22475;51.390;7.180;2023-07-31T00:22:11;20.00;93.90
36450;DHT22;22475;51.390;7.180;2023-07-31T00:24:38;20.00;93.80
36450;DHT22;22475;51.390;7.180;2023-07-31T00:27:04;20.00;93.90
36450;DHT22;22475;51.390;7.180;2023-07-31T00:29:31;19.90;93.90
36450;DHT22;22475;51.390;7.180;2023-07-31T00:31:59;20.00;93.90
36450;DHT22;22475;51.390;7.180;2023-07-31T00:34:26;20.00;93.90
36450;DHT22;22475;51.390;7.180;2023-07-31T00:36:52;19.90;93.80
36450;DHT22;22475;51.390;7.180;2023-07-31T00:39:19;19.90;93.80
36450;DHT22;22475;51.390;7.180;2023-07-31T00:41:46;20.00;93.90
36450;DHT22;22475;51.390;7.180;2023-07-31T00:44:12;19.90;93.80
36450;DHT22;22475;51.390;7.180;2023-07-31T00:46:39;19.90;93.80
36450;DHT22;22475;51.390;7.180;2023-07-31T00:49:07;19.90;93.80
36450;DHT22;22475;51.390;7.180;2023-07-31T00:51:33;19.90;93.80
36450;DHT22;22475;51.390;7.180;2023-07-31T00:54:00;20.00;93.90
36450;DHT22;22475;51.390;7.180;2023-07-31T00:56:27;19.90;93.80
36450;DHT22;22475;51.390;7.180;2023-07-31T00:58:54;20.00;93.90
36450;DHT22;22475;51.390;7.180;2023-07-31T01:01:21;19.90;93.80
36450;DHT22;22475;51.390;7.180;2023-07-31T01:03:47;19.90;93.80
36450;DHT22;22475;51.390;7.180;2023-07-31T01:06:17;19.90;93.80
36450;DHT22;22475;51.390;7.180;2023-07-31T01:08:51;19.90;93.80
36450;DHT22;22475;51.390;7.180;2023-07-31T01:11:33;19.90;93.80
36450;DHT22;22475;51.390;7.180;2023-07-31T01:13:59;19.90;93.80
36450;DHT22;22475;51.390;7.180;2023-07-31T01:16:26;19.90;93.90
36450;DHT22;22475;51.390;7.180;2023-07-31T01:18:53;19.90;93.90
36450;DHT22;22475;51.390;7.180;2023-07-31T01:24:10;19.90;93.90
36450;DHT22;22475;51.390;7.180;2023-07-31T01:26:41;19.90;93.90
36450;DHT22;22475;51.390;7.180;2023-07-31T01:29:13;19.90;93.90
36450;DHT22;22475;51.390;7.180;2023-07-31T01:31:42;19.90;93.90
36450;DHT22;22475;51.390;7.180;2023-07-31T01:34:10;19.90;93.90
36450;DHT22;22475;51.390;7.180;2023-07-31T01:36:37;19.90;93.90
36450;DHT22;22475;51.390;7.180;2023-07-31T01:39:04;19.90;93.90
36450;DHT22;22475;51.390;7.180;2023-07-31T01:41:30;19.90;93.90
36450;DHT22;22475;51.390;7.180;2023-07-31T01:43:58;19.90;93.90
36450;DHT22;22475;51.390;7.180;2023-07-31T01:46:25;19.90;93.90
36450;DHT22;22475;51.390;7.180;2023-07-31T01:48:52;19.90;93.90
36450;DHT22;22475;51.390;7.180;2023-07-31T01:51:18;19.90;93.90
36450;DHT22;22475;51.390;7.180;2023-07-31T01:53:45;19.90;93.90
36450;DHT22;22475;51.390;7.180;2023-07-31T01:56:11;19.90;93.90
36450;DHT22;22475;51.390;7.180;2023-07-31T01:58:38;19.90;93.90
36450;DHT22;22475;51.390;7.180;2023-07-31T02:01:06;19.90;93.90
36450;DHT22;22475;51.390;7.180;2023-07-31T02:03:32;19.90;93.90
36450;DHT22;22475;51.390;7.180;2023-07-31T02:06:00;19.90;93.90
36450;DHT22;22475;51.390;7.180;2023-07-31T02:08:26;19.90;93.90
36450;DHT22;22475;51.390;7.180;2023-07-31T02:10:53;19.90;93.90
36450;DHT22;22475;51.390;7.180;2023-07-31T02:13:20;19.90;93.90
36450;DHT22;22475;51.390;7.180;2023-07-31T02:15:46;19.90;93.90
36450;DHT22;22475;51.390;7.180;2023-07-31T02:18:14;19.90;93.90
36450;DHT22;22475;51.390;7.180;2023-07-31T02:20:41;19.90;93.90
36450;DHT22;22475;51.390;7.180;2023-07-31T02:23:07;19.90;93.90
36450;DHT22;22475;51.390;7.180;2023-07-31T02:25:34;19.90;93.90
36450;DHT22;22475;51.390;7.180;2023-07-31T02:28:01;19.90;93.90
36450;DHT22;22475;51.390;7.180;2023-07-31T02:30:27;19.90;93.90
36450;DHT22;22475;51.390;7.180;2023-07-31T02:32:54;19.90;93.90
36450;DHT22;22475;51.390;7.180;2023-07-31T02:35:22;19.90;93.90
36450;DHT22;22475;51.390;7.180;2023-07-31T02:37:48;19.90;93.90
36450;DHT22;22475;51.390;7.180;2023-07-31T02:40:15;19.90;93.90
36450;DHT22;22475;51.390;7.180;2023-07-31T02:42:41;19.90;93.90
36450;DHT22;22475;51.390;7.180;2023-07-31T02:45:08;19.90;93.90
36450;DHT22;22475;51.390;7.180;2023-07-31T02:47:35;19.90;93.90
36450;DHT22;22475;51.390;7.180;2023-07-31T02:50:01;19.90;93.90
36450;DHT22;22475;51.390;7.180;2023-07-31T02:52:29;19.90;93.90
36450;DHT22;22475;51.390;7.180;2023-07-31T02:54:56;19.90;93.90
36450;DHT22;22475;51.390;7.180;2023-07-31T02:57:23;19.90;93.90
36450;DHT22;22475;51.390;7.180;2023-07-31T02:59:49;19.90;93.90
36450;DHT22;22475;51.390;7.180;2023-07-31T03:02:16;19.90;93.90
36450;DHT22;22475;51.390;7.180;2023-07-31T03:04:43;19.90;93.90
36450;DHT22;22475;51.390;7.180;2023-07-31T03:07:09;19.90;93.90
36450;DHT22;22475;51.390;7.180;2023-07-31T03:09:37;19.90;93.90
36450;DHT22;22475;51.390;7.180;2023-07-31T03:12:04;19.90;93.90
36450;DHT22;22475;51.390;7.180;2023-07-31T03:14:30;19.90;93.90
36450;DHT22;22475;51.390;7.180;2023-07-31T03:16:57;19.90;93.90
36450;DHT22;22475;51.390;7.180;2023-07-31T03:19:23;19.90;93.90
36450;DHT22;22475;51.390;7.180;2023-07-31T03:21:50;19.90;93.90
36450;DHT22;22475;51.390;7.180;2023-07-31T03:24:17;19.90;93.90
36450;DHT22;22475;51.390;7.180;2023-07-31T03:26:44;19.90;93.90
36450;DHT22;22475;51.390;7.180;2023-07-31T03:29:11;19.90;93.90
36450;DHT22;22475;51.390;7.180;2023-07-31T03:31:38;19.90;93.90
36450;DHT22;22475;51.390;7.180;2023-07-31T03:34:04;19.90;93.90
36450;DHT22;22475;51.390;7.180;2023-07-31T03:36:31;19.90;93.90
36450;DHT22;22475;51.390;7.180;2023-07-31T03:38:57;19.90;93.90
36450;DHT22;22475;51.390;7.180;2023-07-31T03:41:24;19.90;93.90
36450;DHT22;22475;51.390;7.180;2023-07-31T03:43:52;19.90;93.90
36450;DHT22;22475;51.390;7.180;2023-07-31T03:46:21;19.90;93.90
36450;DHT22;22475;51.390;7.180;2023-07-31T03:48:47;19.90;94.20
36450;DHT22;22475;51.390;7.180;2023-07-31T03:51:14;19.90;93.90
36450;DHT22;22475;51.390;7.180;2023-07-31T03:53:41;19.90;93.90
36450;DHT22;22475;51.390;7.180;2023-07-31T03:56:07;19.90;93.90
36450;DHT22;22475;51.390;7.180;2023-07-31T03:58:34;19.90;93.90
36450;DHT22;22475;51.390;7.180;2023-07-31T04:01:03;19.90;93.90
36450;DHT22;22475;51.390;7.180;2023-07-31T04:03:30;19.90;93.90
36450;DHT22;22475;51.390;7.180;2023-07-31T04:05:56;19.90;93.90
36450;DHT22;22475;51.390;7.180;2023-07-31T04:08:23;19.90;93.90
36450;DHT22;22475;51.390;7.180;2023-07-31T04:10:50;19.90;93.90
36450;DHT22;22475;51.390;7.180;2023-07-31T04:13:16;19.90;93.90
36450;DHT22;22475;51.390;7.180;2023-07-31T04:15:47;19.90;93.90
36450;DHT22;22475;51.390;7.180;2023-07-31T04:18:15;19.90;94.20
36450;DHT22;22475;51.390;7.180;2023-07-31T04:20:41;19.90;93.90
36450;DHT22;22475;51.390;7.180;2023-07-31T04:23:08;19.90;93.90
36450;DHT22;22475;51.390;7.180;2023-07-31T04:25:35;19.90;93.90
36450;DHT22;22475;51.390;7.180;2023-07-31T04:28:01;19.80;93.90
36450;DHT22;22475;51.390;7.180;2023-07-31T04:30:28;19.90;93.90
36450;DHT22;22475;51.390;7.180;2023-07-31T04:32:54;19.90;93.90
36450;DHT22;22475;51.390;7.180;2023-07-31T04:35:22;19.90;93.90
36450;DHT22;22475;51.390;7.180;2023-07-31T04:37:49;19.90;93.90
36450;DHT22;22475;51.390;7.180;2023-07-31T04:40:15;19.90;93.90
36450;DHT22;22475;51.390;7.180;2023-07-31T04:42:42;19.90;93.90
36450;DHT22;22475;51.390;7.180;2023-07-31T04:45:09;19.90;93.90
36450;DHT22;22475;51.390;7.180;2023-07-31T04:47:36;19.90;93.90
36450;DHT22;22475;51.390;7.180;2023-07-31T04:50:02;19.90;93.90
36450;DHT22;22475;51.390;7.180;2023-07-31T04:52:30;19.90;93.90
36450;DHT22;22475;51.390;7.180;2023-07-31T04:54:57;19.90;93.90
36450;DHT22;22475;51.390;7.180;2023-07-31T04:57:23;19.90;93.90
36450;DHT22;22475;51.390;7.180;2023-07-31T04:59:50;19.90;93.90
36450;DHT22;22475;51.390;7.180;2023-07-31T05:02:16;19.90;93.90
36450;DHT22;22475;51.390;7.180;2023-07-31T05:04:43;19.90;93.90
36450;DHT22;22475;51.390;7.180;2023-07-31T05:07:10;19.80;93.90
36450;DHT22;22475;51.390;7.180;2023-07-31T05:09:38;19.90;93.90
36450;DHT22;22475;51.390;7.180;2023-07-31T05:12:05;19.80;93.90
36450;DHT22;22475;51.390;7.180;2023-07-31T05:14:32;19.80;93.90
36450;DHT22;22475;51.390;7.180;2023-07-31T05:16:58;19.90;93.90
36450;DHT22;22475;51.390;7.180;2023-07-31T05:19:25;19.90;93.90
36450;DHT22;22475;51.390;7.180;2023-07-31T05:21:52;19.90;93.90
36450;DHT22;22475;51.390;7.180;2023-07-31T05:24:18;19.90;93.90
36450;DHT22;22475;51.390;7.180;2023-07-31T05:26:46;19.90;94.30
36450;DHT22;22475;51.390;7.180;2023-07-31T05:29:13;19.90;93.90
36450;DHT22;22475;51.390;7.180;2023-07-31T05:31:39;19.90;93.90
36450;DHT22;22475;51.390;7.180;2023-07-31T05:34:06;19.90;93.90
36450;DHT22;22475;51.390;7.180;2023-07-31T05:36:32;19.90;93.90
36450;DHT22;22475;51.390;7.180;2023-07-31T05:38:59;19.90;93.90
36450;DHT22;22475;51.390;7.180;2023-07-31T05:41:25;19.90;93.90
36450;DHT22;22475;51.390;7.180;2023-07-31T05:43:53;19.90;93.90
36450;DHT22;22475;51.390;7.180;2023-07-31T05:46:20;19.90;94.30
36450;DHT22;22475;51.390;7.180;2023-07-31T05:48:47;19.90;93.90
36450;DHT22;22475;51.390;7.180;2023-07-31T05:51:13;19.90;93.90
36450;DHT22;22475;51.390;7.180;2023-07-31T05:53:40;19.80;93.90
36450;DHT22;22475;51.390;7.180;2023-07-31T05:56:06;19.80;93.90
36450;DHT22;22475;51.390;7.180;2023-07-31T05:58:33;19.90;93.90
36450;DHT22;22475;51.390;7.180;2023-07-31T06:01:01;19.90;93.90
36450;DHT22;22475;51.390;7.180;2023-07-31T06:03:27;19.90;93.90
36450;DHT22;22475;51.390;7.180;2023-07-31T06:05:54;19.90;93.90
36450;DHT22;22475;51.390;7.180;2023-07-31T06:08:21;19.80;93.90
36450;DHT22;22475;51.390;7.180;2023-07-31T06:10:47;19.90;93.90
36450;DHT22;22475;51.390;7.180;2023-07-31T06:13:14;19.90;93.90
36450;DHT22;22475;51.390;7.180;2023-07-31T06:15:40;19.90;93.90
36450;DHT22;22475;51.390;7.180;2023-07-31T06:18:08;19.90;93.90
36450;DHT22;22475;51.390;7.180;2023-07-31T06:20:35;19.90;93.90
36450;DHT22;22475;51.390;7.180;2023-07-31T06:23:02;19.90;94.00
36450;DHT22;22475;51.390;7.180;2023-07-31T06:25:29;19.80;93.90
36450;DHT22;22475;51.390;7.180;2023-07-31T06:27:55;19.80;93.90
36450;DHT22;22475;51.390;7.180;2023-07-31T06:30:22;19.90;94.00
36450;DHT22;22475;51.390;7.180;2023-07-31T06:32:48;19.90;94.00
36450;DHT22;22475;51.390;7.180;2023-07-31T06:35:16;19.90;94.30
36450;DHT22;22475;51.390;7.180;2023-07-31T06:37:43;19.90;94.00
36450;DHT22;22475;51.390;7.180;2023-07-31T06:40:10;19.90;94.00
36450;DHT22;22475;51.390;7.180;2023-07-31T06:42:37;19.80;93.90
36450;DHT22;22475;51.390;7.180;2023-07-31T06:45:03;19.90;94.00
36450;DHT22;22475;51.390;7.180;2023-07-31T06:47:30;19.90;94.00
36450;DHT22;22475;51.390;7.180;2023-07-31T06:49:57;19.90;94.00
36450;DHT22;22475;51.390;7.180;2023-07-31T06:52:25;19.90;94.00
36450;DHT22;22475;51.390;7.180;2023-07-31T06:55:00;19.90;94.00
36450;DHT22;22475;51.390;7.180;2023-07-31T06:57:26;19.90;94.00
36450;DHT22;22475;51.390;7.180;2023-07-31T06:59:53;19.90;94.00
36450;DHT22;22475;51.390;7.180;2023-07-31T07:02:19;19.90;94.00
36450;DHT22;22475;51.390;7.180;2023-07-31T07:04:46;19.90;94.00
36450;DHT22;22475;51.390;7.180;2023-07-31T07:07:13;19.80;94.00
36450;DHT22;22475;51.390;7.180;2023-07-31T07:09:40;19.90;94.00
36450;DHT22;22475;51.390;7.180;2023-07-31T07:12:08;19.80;93.90
36450;DHT22;22475;51.390;7.180;2023-07-31T07:14:34;19.80;93.90
36450;DHT22;22475;51.390;7.180;2023-07-31T07:17:01;19.90;94.00
36450;DHT22;22475;51.390;7.180;2023-07-31T07:19:27;19.80;93.90
36450;DHT22;22475;51.390;7.180;2023-07-31T07:21:54;19.90;94.00
36450;DHT22;22475;51.390;7.180;2023-07-31T07:24:21;19.90;94.00
36450;DHT22;22475;51.390;7.180;2023-07-31T07:26:49;19.80;94.00
36450;DHT22;22475;51.390;7.180;2023-07-31T07:29:16;19.90;94.00
36450;DHT22;22475;51.390;7.180;2023-07-31T07:31:42;19.90;94.00
36450;DHT22;22475;51.390;7.180;2023-07-31T07:34:09;19.80;94.00
36450;DHT22;22475;51.390;7.180;2023-07-31T07:36:35;19.90;94.00
36450;DHT22;22475;51.390;7.180;2023-07-31T07:39:02;19.80;94.00
36450;DHT22;22475;51.390;7.180;2023-07-31T07:41:29;19.80;94.00
36450;DHT22;22475;51.390;7.180;2023-07-31T07:43:57;19.80;94.00
36450;DHT22;22475;51.390;7.180;2023-07-31T07:46:23;19.80;94.00
36450;DHT22;22475;51.390;7.180;2023-07-31T07:48:50;19.80;94.00
36450;DHT22;22475;51.390;7.180;2023-07-31T07:51:17;19.90;94.00
36450;DHT22;22475;51.390;7.180;2023-07-31T07:53:43;19.80;94.00
36450;DHT22;22475;51.390;7.180;2023-07-31T07:56:10;19.80;94.10
36450;DHT22;22475;51.390;7.180;2023-07-31T07:58:36;19.80;94.00
36450;DHT22;22475;51.390;7.180;2023-07-31T08:01:04;19.90;94.00
36450;DHT22;22475;51.390;7.180;2023-07-31T08:03:31;19.80;94.00
36450;DHT22;22475;51.390;7.180;2023-07-31T08:05:58;19.80;94.00
36450;DHT22;22475;51.390;7.180;2023-07-31T08:08:24;19.80;94.00
36450;DHT22;22475;51.390;7.180;2023-07-31T08:10:51;19.80;94.00
36450;DHT22;22475;51.390;7.180;2023-07-31T08:13:17;19.80;94.00
36450;DHT22;22475;51.390;7.180;2023-07-31T08:15:44;19.80;94.00
36450;DHT22;22475;51.390;7.180;2023-07-31T08:18:12;19.80;94.00
36450;DHT22;22475;51.390;7.180;2023-07-31T08:20:39;19.80;94.30
36450;DHT22;22475;51.390;7.180;2023-07-31T08:23:05;19.80;94.00
36450;DHT22;22475;51.390;7.180;2023-07-31T08:25:34;19.80;94.00
36450;DHT22;22475;51.390;7.180;2023-07-31T08:28:00;19.80;94.00
36450;DHT22;22475;51.390;7.180;2023-07-31T08:30:27;19.80;94.00
36450;DHT22;22475;51.390;7.180;2023-07-31T08:32:53;19.80;94.00
36450;DHT22;22475;51.390;7.180;2023-07-31T08:35:21;19.80;94.00
36450;DHT22;22475;51.390;7.180;2023-07-31T08:37:48;19.80;94.00
36450;DHT22;22475;51.390;7.180;2023-07-31T08:40:14;19.80;94.00
36450;DHT22;22475;51.390;7.180;2023-07-31T08:42:44;19.80;94.00
36450;DHT22;22475;51.390;7.180;2023-07-31T08:45:13;19.80;94.00
36450;DHT22;22475;51.390;7.180;2023-07-31T08:47:40;19.80;94.00
36450;DHT22;22475;51.390;7.180;2023-07-31T08:50:07;19.80;94.00
36450;DHT22;22475;51.390;7.180;2023-07-31T08:52:35;19.80;94.00
36450;DHT22;22475;51.390;7.180;2023-07-31T08:55:02;19.80;94.00
36450;DHT22;22475;51.390;7.180;2023-07-31T08:57:28;19.80;94.00
36450;DHT22;22475;51.390;7.180;2023-07-31T08:59:55;19.80;94.10
36450;DHT22;22475;51.390;7.180;2023-07-31T09:02:23;19.80;94.10
36450;DHT22;22475;51.390;7.180;2023-07-31T09:04:51;19.80;94.00
36450;DHT22;22475;51.390;7.180;2023-07-31T09:07:17;19.80;94.00
36450;DHT22;22475;51.390;7.180;2023-07-31T09:09:46;19.80;94.00
36450;DHT22;22475;51.390;7.180;2023-07-31T09:12:12;19.80;94.00
36450;DHT22;22475;51.390;7.180;2023-07-31T09:14:39;19.80;94.10
36450;DHT22;22475;51.390;7.180;2023-07-31T09:17:06;19.80;94.10
36450;DHT22;22475;51.390;7.180;2023-07-31T09:19:33;19.80;94.10
36450;DHT22;22475;51.390;7.180;2023-07-31T09:22:02;19.80;94.10
36450;DHT22;22475;51.390;7.180;2023-07-31T09:24:30;19.80;94.10
36450;DHT22;22475;51.390;7.180;2023-07-31T09:26:58;19.80;94.10
36450;DHT22;22475;51.390;7.180;2023-07-31T09:29:25;19.80;94.10
36450;DHT22;22475;51.390;7.180;2023-07-31T09:31:52;19.80;94.10
36450;DHT22;22475;51.390;7.180;2023-07-31T09:34:19;19.80;94.10
36450;DHT22;22475;51.390;7.180;2023-07-31T09:36:47;19.80;94.10
36450;DHT22;22475;51.390;7.180;2023-07-31T09:39:14;19.80;94.10
36450;DHT22;22475;51.390;7.180;2023-07-31T09:41:42;19.80;94.10
36450;DHT22;22475;51.390;7.180;2023-07-31T09:44:10;19.80;94.10
36450;DHT22;22475;51.390;7.180;2023-07-31T09:46:37;19.80;94.10
36450;DHT22;22475;51.390;7.180;2023-07-31T09:49:05;19.80;94.10
36450;DHT22;22475;51.390;7.180;2023-07-31T09:51:32;19.80;94.10
36450;DHT22;22475;51.390;7.180;2023-07-31T09:54:03;19.80;94.10
36450;DHT22;22475;51.390;7.180;2023-07-31T09:56:30;19.80;94.10
36450;DHT22;22475;51.390;7.180;2023-07-31T09:58:58;19.80;94.10
36450;DHT22;22475;51.390;7.180;2023-07-31T10:01:26;19.80;94.10
36450;DHT22;22475;51.390;7.180;2023-07-31T10:03:53;19.80;94.10
36450;DHT22;22475;51.390;7.180;2023-07-31T10:06:19;19.80;94.50
36450;DHT22;22475;51.390;7.180;2023-07-31T10:08:48;19.80;94.10
36450;DHT22;22475;51.390;7.180;2023-07-31T10:11:16;19.80;94.10
36450;DHT22;22475;51.390;7.180;2023-07-31T10:13:43;19.80;94.10
36450;DHT22;22475;51.390;7.180;2023-07-31T10:16:10;19.80;94.10
36450;DHT22;22475;51.390;7.180;2023-07-31T10:18:39;19.80;94.50
36450;DHT22;22475;51.390;7.180;2023-07-31T10:21:06;19.80;94.10
36450;DHT22;22475;51.390;7.180;2023-07-31T10:23:33;19.80;94.10
36450;DHT22;22475;51.390;7.180;2023-07-31T10:26:00;19.80;94.10
36450;DHT22;22475;51.390;7.180;2023-07-31T10:28:27;19.80;94.10
36450;DHT22;22475;51.390;7.180;2023-07-31T10:30:55;19.80;94.10
36450;DHT22;22475;51.390;7.180;2023-07-31T10:33:22;19.80;94.10
36450;DHT22;22475;51.390;7.180;2023-07-31T10:35:50;19.80;94.10
36450;DHT22;22475;51.390;7.180;2023-07-31T10:38:19;19.80;94.10
36450;DHT22;22475;51.390;7.180;2023-07-31T10:40:45;19.80;94.10
36450;DHT22;22475;51.390;7.180;2023-07-31T10:43:23;19.80;94.10
36450;DHT22;22475;51.390;7.180;2023-07-31T10:45:50;19.80;94.10
36450;DHT22;22475;51.390;7.180;2023-07-31T10:48:19;19.80;94.10
36450;DHT22;22475;51.390;7.180;2023-07-31T10:50:47;19.80;94.10
36450;DHT22;22475;51.390;7.180;2023-07-31T10:53:23;19.90;94.20
36450;DHT22;22475;51.390;7.180;2023-07-31T10:55:50;19.80;94.20
36450;DHT22;22475;51.390;7.180;2023-07-31T10:58:18;19.90;94.20
36450;DHT22;22475;51.390;7.180;2023-07-31T11:00:45;19.80;94.20
36450;DHT22;22475;51.390;7.180;2023-07-31T11:03:12;19.80;94.20
36450;DHT22;22475;51.390;7.180;2023-07-31T11:05:46;19.80;94.20
36450;DHT22;22475;51.390;7.180;2023-07-31T11:08:16;19.80;94.30
36450;DHT22;22475;51.390;7.180;2023-07-31T11:10:44;19.80;94.20
36450;DHT22;22475;51.390;7.180;2023-07-31T11:13:11;19.90;94.20
36450;DHT22;22475;51.390;7.180;2023-07-31T11:15:37;19.90;94.20
36450;DHT22;22475;51.390;7.180;2023-07-31T11:18:04;19.80;94.20
36450;DHT22;22475;51.390;7.180;2023-07-31T11:20:33;19.80;94.20
36450;DHT22;22475;51.390;7.180;2023-07-31T11:23:00;19.90;94.20
36450;DHT22;22475;51.390;7.180;2023-07-31T11:25:28;19.80;94.20
36450;DHT22;22475;51.390;7.180;2023-07-31T11:27:56;19.80;94.20
36450;DHT22;22475;51.390;7.180;2023-07-31T11:30:23;19.80;94.20
36450;DHT22;22475;51.390;7.180;2023-07-31T11:32:49;19.80;94.20
36450;DHT22;22475;51.390;7.180;2023-07-31T11:35:16;19.80;94.20
36450;DHT22;22475;51.390;7.180;2023-07-31T11:37:43;19.80;94.20
36450;DHT22;22475;51.390;7.180;2023-07-31T11:40:11;19.80;94.20
36450;DHT22;22475;51.390;7.180;2023-07-31T11:42:37;19.80;94.20
36450;DHT22;22475;51.390;7.180;2023-07-31T11:45:06;19.80;94.20
36450;DHT22;22475;51.390;7.180;2023-07-31T11:47:33;19.80;94.20
36450;DHT22;22475;51.390;7.180;2023-07-31T11:50:00;19.80;94.60
36450;DHT22;22475;51.390;7.180;2023-07-31T11:52:27;19.80;94.20
36450;DHT22;22475;51.390;7.180;2023-07-31T11:54:55;19.80;94.20
36450;DHT22;22475;51.390;7.180;2023-07-31T11:57:21;19.90;94.20
36450;DHT22;22475;51.390;7.180;2023-07-31T11:59:48;19.80;94.20
36450;DHT22;22475;51.390;7.180;2023-07-31T12:02:16;19.90;94.20
36450;DHT22;22475;51.390;7.180;2023-07-31T12:04:43;19.90;94.40
36450;DHT22;22475;51.390;7.180;2023-07-31T12:07:10;19.80;94.20
36450;DHT22;22475;51.390;7.180;2023-07-31T12:09:37;19.80;94.20
36450;DHT22;22475;51.390;7.180;2023-07-31T12:12:07;19.90;94.20
36450;DHT22;22475;51.390;7.180;2023-07-31T12:14:34;19.90;94.20
36450;DHT22;22475;51.390;7.180;2023-07-31T12:17:04;19.90;94.20
36450;DHT22;22475;51.390;7.180;2023-07-31T12:19:33;19.90;94.20
36450;DHT22;22475;51.390;7.180;2023-07-31T12:22:00;19.90;94.30
36450;DHT22;22475;51.390;7.180;2023-07-31T12:24:27;19.90;94.30
36450;DHT22;22475;51.390;7.180;2023-07-31T12:26:53;19.80;94.20
36450;DHT22;22475;51.390;7.180;2023-07-31T12:29:20;19.90;94.30
36450;DHT22;22475;51.390;7.180;2023-07-31T12:31:47;19.90;94.30
36450;DHT22;22475;51.390;7.180;2023-07-31T12:34:16;19.80;94.20
36450;DHT22;22475;51.390;7.180;2023-07-31T12:36:45;19.90;94.30
36450;DHT22;22475;51.390;7.180;2023-07-31T12:39:12;19.90;94.30
36450;DHT22;22475;51.390;7.180;2023-07-31T12:41:39;19.90;94.30
36450;DHT22;22475;51.390;7.180;2023-07-31T12:44:05;19.90;94.30
36450;DHT22;22475;51.390;7.180;2023-07-31T12:46:32;19.80;94.20
36450;DHT22;22475;51.390;7.180;2023-07-31T12:48:58;19.90;94.30
36450;DHT22;22475;51.390;7.180;2023-07-31T12:51:25;19.80;94.20
36450;DHT22;22475;51.390;7.180;2023-07-31T12:53:53;19.90;94.30
36450;DHT22;22475;51.390;7.180;2023-07-31T12:56:20;19.90;94.30
36450;DHT22;22475;51.390;7.180;2023-07-31T12:58:47;19.90;94.30
36450;DHT22;22475;51.390;7.180;2023-07-31T13:01:13;19.90;94.30
36450;DHT22;22475;51.390;7.180;2023-07-31T13:03:40;19.80;94.20
36450;DHT22;22475;51.390;7.180;2023-07-31T13:06:06;19.80;94.20
36450;DHT22;22475;51.390;7.180;2023-07-31T13:08:33;19.90;94.30
36450;DHT22;22475;51.390;7.180;2023-07-31T13:11:01;19.90;94.30
36450;DHT22;22475;51.390;7.180;2023-07-31T13:13:27;19.80;94.30
36450;DHT22;22475;51.390;7.180;2023-07-31T13:15:55;19.80;94.30
36450;DHT22;22475;51.390;7.180;2023-07-31T13:18:22;19.90;94.30
36450;DHT22;22475;51.390;7.180;2023-07-31T13:20:48;19.90;94.30
36450;DHT22;22475;51.390;7.180;2023-07-31T13:23:15;19.90;94.30
36450;DHT22;22475;51.390;7.180;2023-07-31T13:25:41;19.90;94.30
36450;DHT22;22475;51.390;7.180;2023-07-31T13:28:10;19.90;94.30
36450;DHT22;22475;51.390;7.180;2023-07-31T13:30:36;19.90;94.30
36450;DHT22;22475;51.390;7.180;2023-07-31T13:33:03;19.90;94.30
36450;DHT22;22475;51.390;7.180;2023-07-31T13:35:29;19.90;94.30
36450;DHT22;22475;51.390;7.180;2023-07-31T13:37:56;19.90;94.30
36450;DHT22;22475;51.390;7.180;2023-07-31T13:40:23;19.90;94.30
36450;DHT22;22475;51.390;7.180;2023-07-31T13:42:50;19.90;94.30
36450;DHT22;22475;51.390;7.180;2023-07-31T13:45:18;19.90;94.30
36450;DHT22;22475;51.390;7.180;2023-07-31T13:47:44;19.90;94.30
36450;DHT22;22475;51.390;7.180;2023-07-31T13:50:11;19.90;94.30
36450;DHT22;22475;51.390;7.180;2023-07-31T13:52:38;19.90;94.30
36450;DHT22;22475;51.390;7.180;2023-07-31T13:55:04;19.80;94.30
36450;DHT22;22475;51.390;7.180;2023-07-31T13:57:31;19.90;94.30
36450;DHT22;22475;51.390;7.180;2023-07-31T13:59:58;19.90;94.30
36450;DHT22;22475;51.390;7.180;2023-07-31T14:02:26;19.90;94.30
36450;DHT22;22475;51.390;7.180;2023-07-31T14:04:52;19.90;94.30
36450;DHT22;22475;51.390;7.180;2023-07-31T14:07:19;19.90;94.30
36450;DHT22;22475;51.390;7.180;2023-07-31T14:09:45;19.80;94.30
36450;DHT22;22475;51.390;7.180;2023-07-31T14:12:12;19.90;94.30
36450;DHT22;22475;51.390;7.180;2023-07-31T14:14:39;19.80;94.30
36450;DHT22;22475;51.390;7.180;2023-07-31T14:17:05;19.90;94.30
36450;DHT22;22475;51.390;7.180;2023-07-31T14:19:33;19.90;94.30
36450;DHT22;22475;51.390;7.180;2023-07-31T14:22:00;19.90;94.30
36450;DHT22;22475;51.390;7.180;2023-07-31T14:24:26;19.90;94.30
36450;DHT22;22475;51.390;7.180;2023-07-31T14:26:53;19.90;94.40
36450;DHT22;22475;51.390;7.180;2023-07-31T14:29:19;19.90;94.30
36450;DHT22;22475;51.390;7.180;2023-07-31T14:31:46;19.90;94.40
36450;DHT22;22475;51.390;7.180;2023-07-31T14:34:12;19.90;94.40
36450;DHT22;22475;51.390;7.180;2023-07-31T14:36:40;19.90;94.40
36450;DHT22;22475;51.390;7.180;2023-07-31T14:39:07;19.90;94.40
36450;DHT22;22475;51.390;7.180;2023-07-31T14:41:34;19.90;94.40
36450;DHT22;22475;51.390;7.180;2023-07-31T14:44:00;19.90;94.40
36450;DHT22;22475;51.390;7.180;2023-07-31T14:46:27;19.90;94.40
36450;DHT22;22475;51.390;7.180;2023-07-31T14:48:53;19.90;94.40
36450;DHT22;22475;51.390;7.180;2023-07-31T14:51:20;19.90;94.40
36450;DHT22;22475;51.390;7.180;2023-07-31T14:53:48;19.80;94.30
36450;DHT22;22475;51.390;7.180;2023-07-31T14:56:15;19.80;94.30
36450;DHT22;22475;51.390;7.180;2023-07-31T14:58:41;19.90;94.40
36450;DHT22;22475;51.390;7.180;2023-07-31T15:01:08;19.90;94.40
36450;DHT22;22475;51.390;7.180;2023-07-31T15:03:34;19.80;94.30
36450;DHT22;22475;51.390;7.180;2023-07-31T15:06:01;19.90;94.40
36450;DHT22;22475;51.390;7.180;2023-07-31T15:08:28;19.90;94.40
36450;DHT22;22475;51.390;7.180;2023-07-31T15:10:56;19.90;94.40
36450;DHT22;22475;51.390;7.180;2023-07-31T15:13:23;19.90;94.40
36450;DHT22;22475;51.390;7.180;2023-07-31T15:15:50;19.90;94.40
36450;DHT22;22475;51.390;7.180;2023-07-31T15:18:16;19.80;94.30
36450;DHT22;22475;51.390;7.180;2023-07-31T15:20:43;19.90;94.40
36450;DHT22;22475;51.390;7.180;2023-07-31T15:23:10;19.90;94.40
36450;DHT22;22475;51.390;7.180;2023-07-31T15:25:36;19.90;94.40
36450;DHT22;22475;51.390;7.180;2023-07-31T15:28:04;19.90;94.70
36450;DHT22;22475;51.390;7.180;2023-07-31T15:30:32;19.90;94.40